Albert Maersk — OUOW2 — position and weather

sailwx.info

Track history (hours):
 
Tides and Currents Weather Stations Pressure Air Temp Water Temp Dewpoint Dewpoint Depression Visibility Wind Speed Wind Dir Waves Ship Positions

Albert Maersk

Last reported at 2018-Feb-19 18:02 UTC. Time now 2018-Feb-19 20:20 UTC.
Position N 36°11' W 028°58'.

MMSI: 220259928.

Date/timePositionNaut miles runAvg speedWind from/ knotsBaromVisibWave heightAir tempDewpointWater temp
2018-Feb-19 18:02N 36°11' W 028°58'019.5
2018-Feb-19 18:00N 36°11' W 028°58'1220.4
2018-Feb-19 17:26N 36°12' W 029°13'920.2
2018-Feb-19 16:59N 36°12' W 029°24'  
2018-Feb-15 01:25N 36°56' W 075°56'4 9.4
2018-Feb-15 00:56N 36°57' W 076°01'511.1
2018-Feb-15 00:29N 36°59' W 076°07'4 8.3
2018-Feb-14 23:59N 36°60' W 076°12'5 9.6
2018-Feb-14 23:28N 36°60' W 076°18'3 7.1
2018-Feb-14 23:00N 36°57' W 076°20'3 7.0
2018-Feb-14 22:31N 36°53' W 076°20'1 1.9
2018-Feb-14 21:59N 36°52' W 076°21'0 0.0
2018-Feb-14 21:29N 36°52' W 076°21'0 0.0
2018-Feb-14 20:59N 36°52' W 076°21'0 0.0
2018-Feb-14 20:23N 36°52' W 076°21'0 0.0
2018-Feb-14 19:59N 36°52' W 076°21'0 0.0
2018-Feb-14 19:29N 36°52' W 076°21'0 0.0
2018-Feb-14 18:59N 36°52' W 076°21'0 0.0
2018-Feb-14 18:29N 36°52' W 076°21'0 0.0
2018-Feb-14 17:59N 36°52' W 076°21'0 0.0
2018-Feb-14 17:29N 36°52' W 076°21'0 0.0
2018-Feb-14 16:59N 36°52' W 076°21'0 0.0
2018-Feb-14 16:29N 36°52' W 076°21'0 0.0
2018-Feb-14 15:59N 36°52' W 076°21'0 0.0
2018-Feb-14 15:29N 36°52' W 076°21'0 0.0
2018-Feb-14 14:59N 36°52' W 076°21'0 0.0
2018-Feb-14 14:29N 36°52' W 076°21'0 0.0
2018-Feb-14 13:59N 36°52' W 076°21'0 0.0
2018-Feb-14 13:29N 36°52' W 076°21'0 0.0
2018-Feb-14 12:59N 36°52' W 076°21'0 0.0
2018-Feb-14 12:29N 36°52' W 076°21'0 0.0
2018-Feb-14 11:59N 36°52' W 076°21'0 0.0
2018-Feb-14 11:29N 36°52' W 076°21'0 0.0
2018-Feb-14 10:59N 36°52' W 076°21'0 0.0
2018-Feb-14 10:29N 36°52' W 076°21'0 0.0
2018-Feb-14 09:59N 36°52' W 076°21'0 0.0
2018-Feb-14 09:29N 36°52' W 076°21'0 0.0
2018-Feb-14 08:59N 36°52' W 076°21'0 0.0
2018-Feb-14 08:29N 36°52' W 076°21'0 0.0
2018-Feb-14 07:59N 36°52' W 076°21'0 0.0
2018-Feb-14 07:29N 36°52' W 076°21'0 0.0
2018-Feb-14 05:38N 36°52' W 076°21'0 0.0
2018-Feb-14 05:29N 36°52' W 076°21'0 0.0
2018-Feb-14 04:59N 36°52' W 076°21'0 0.0
2018-Feb-14 04:29N 36°52' W 076°21'0 0.0
2018-Feb-14 00:14N 36°52' W 076°21'0 0.0
2018-Feb-13 23:59N 36°52' W 076°21'0 0.0
2018-Feb-13 23:26N 36°52' W 076°21'0 0.0
2018-Feb-13 22:59N 36°52' W 076°21'0 0.0
2018-Feb-13 22:29N 36°52' W 076°21'0 0.0
2018-Feb-13 21:59N 36°52' W 076°21'0 0.0
2018-Feb-13 21:26N 36°52' W 076°21'0 0.0
2018-Feb-13 20:56N 36°52' W 076°21'0 0.0
2018-Feb-13 20:26N 36°52' W 076°21'0 0.0
2018-Feb-13 19:59N 36°52' W 076°21'0 0.0
2018-Feb-13 19:29N 36°52' W 076°21'0 0.0
2018-Feb-13 18:59N 36°52' W 076°21'0 0.0
2018-Feb-13 18:03N 36°52' W 076°21'0 0.0
2018-Feb-13 18:01N 36°52' W 076°21'0 0.0
2018-Feb-13 17:30N 36°52' W 076°21'0 0.0
2018-Feb-13 17:00N 36°52' W 076°21'0 0.0
2018-Feb-13 16:30N 36°52' W 076°21'0 0.0
2018-Feb-13 16:00N 36°52' W 076°21'0 0.0
2018-Feb-13 15:30N 36°52' W 076°21'0 0.0
2018-Feb-13 15:00N 36°52' W 076°21'0 0.0
2018-Feb-13 14:30N 36°52' W 076°21'0 0.0
2018-Feb-13 14:00N 36°52' W 076°21'0 0.0
2018-Feb-13 13:30N 36°52' W 076°21'0 0.0
2018-Feb-13 13:00N 36°52' W 076°21'0 0.0
2018-Feb-13 12:30N 36°52' W 076°21'0 0.0
2018-Feb-13 12:00N 36°52' W 076°21'0 0.0
2018-Feb-13 11:30N 36°52' W 076°21'0 0.0
2018-Feb-13 11:00N 36°52' W 076°21'1 1.5
2018-Feb-13 10:30N 36°53' W 076°20'4 7.3
2018-Feb-13 10:00N 36°56' W 076°20'610.4
2018-Feb-13 09:27N 37°00' W 076°15'714.4
2018-Feb-13 08:57N 36°58' W 076°06'613.2
2018-Feb-13 08:30N 36°57' W 075°59'4 8.7
2018-Feb-13 08:00N 36°55' W 075°54'4 7.0
2018-Feb-13 07:29N 36°52' W 075°51'  
Track history (hours):
 
Tides and Currents Weather Stations Pressure Air Temp Water Temp Dewpoint Dewpoint Depression Visibility Wind Speed Wind Dir Waves Ship Positions

Albert Maersk

Last reported at 2018-Feb-19 18:02 UTC. Time now 2018-Feb-19 20:20 UTC.
Position N 36°11' W 028°58'.

MMSI: 220259928.

Date/timePositionNaut miles runAvg speedWind from/ knotsBaromVisibWave heightAir tempDewpointWater temp
2018-Feb-19 18:02N 36°11' W 028°58'019.5
2018-Feb-19 18:00N 36°11' W 028°58'1220.4
2018-Feb-19 17:26N 36°12' W 029°13'920.2
2018-Feb-19 16:59N 36°12' W 029°24'  
2018-Feb-15 01:25N 36°56' W 075°56'4 9.4
2018-Feb-15 00:56N 36°57' W 076°01'511.1
2018-Feb-15 00:29N 36°59' W 076°07'4 8.3
2018-Feb-14 23:59N 36°60' W 076°12'5 9.6
2018-Feb-14 23:28N 36°60' W 076°18'3 7.1
2018-Feb-14 23:00N 36°57' W 076°20'3 7.0
2018-Feb-14 22:31N 36°53' W 076°20'1 1.9
2018-Feb-14 21:59N 36°52' W 076°21'0 0.0
2018-Feb-14 21:29N 36°52' W 076°21'0 0.0
2018-Feb-14 20:59N 36°52' W 076°21'0 0.0
2018-Feb-14 20:23N 36°52' W 076°21'0 0.0
2018-Feb-14 19:59N 36°52' W 076°21'0 0.0
2018-Feb-14 19:29N 36°52' W 076°21'0 0.0
2018-Feb-14 18:59N 36°52' W 076°21'0 0.0
2018-Feb-14 18:29N 36°52' W 076°21'0 0.0
2018-Feb-14 17:59N 36°52' W 076°21'0 0.0
2018-Feb-14 17:29N 36°52' W 076°21'0 0.0
2018-Feb-14 16:59N 36°52' W 076°21'0 0.0
2018-Feb-14 16:29N 36°52' W 076°21'0 0.0
2018-Feb-14 15:59N 36°52' W 076°21'0 0.0
2018-Feb-14 15:29N 36°52' W 076°21'0 0.0
2018-Feb-14 14:59N 36°52' W 076°21'0 0.0
2018-Feb-14 14:29N 36°52' W 076°21'0 0.0
2018-Feb-14 13:59N 36°52' W 076°21'0 0.0
2018-Feb-14 13:29N 36°52' W 076°21'0 0.0
2018-Feb-14 12:59N 36°52' W 076°21'0 0.0
2018-Feb-14 12:29N 36°52' W 076°21'0 0.0
2018-Feb-14 11:59N 36°52' W 076°21'0 0.0
2018-Feb-14 11:29N 36°52' W 076°21'0 0.0
2018-Feb-14 10:59N 36°52' W 076°21'0 0.0
2018-Feb-14 10:29N 36°52' W 076°21'0 0.0
2018-Feb-14 09:59N 36°52' W 076°21'0 0.0
2018-Feb-14 09:29N 36°52' W 076°21'0 0.0
2018-Feb-14 08:59N 36°52' W 076°21'0 0.0
2018-Feb-14 08:29N 36°52' W 076°21'0 0.0
2018-Feb-14 07:59N 36°52' W 076°21'0 0.0
2018-Feb-14 07:29N 36°52' W 076°21'0 0.0
2018-Feb-14 05:38N 36°52' W 076°21'0 0.0
2018-Feb-14 05:29N 36°52' W 076°21'0 0.0
2018-Feb-14 04:59N 36°52' W 076°21'0 0.0
2018-Feb-14 04:29N 36°52' W 076°21'0 0.0
2018-Feb-14 00:14N 36°52' W 076°21'0 0.0
2018-Feb-13 23:59N 36°52' W 076°21'0 0.0
2018-Feb-13 23:26N 36°52' W 076°21'0 0.0
2018-Feb-13 22:59N 36°52' W 076°21'0 0.0
2018-Feb-13 22:29N 36°52' W 076°21'0 0.0
2018-Feb-13 21:59N 36°52' W 076°21'0 0.0
2018-Feb-13 21:26N 36°52' W 076°21'0 0.0
2018-Feb-13 20:56N 36°52' W 076°21'0 0.0
2018-Feb-13 20:26N 36°52' W 076°21'0 0.0
2018-Feb-13 19:59N 36°52' W 076°21'0 0.0
2018-Feb-13 19:29N 36°52' W 076°21'0 0.0
2018-Feb-13 18:59N 36°52' W 076°21'0 0.0
2018-Feb-13 18:03N 36°52' W 076°21'0 0.0
2018-Feb-13 18:01N 36°52' W 076°21'0 0.0
2018-Feb-13 17:30N 36°52' W 076°21'0 0.0
2018-Feb-13 17:00N 36°52' W 076°21'0 0.0
2018-Feb-13 16:30N 36°52' W 076°21'0 0.0
2018-Feb-13 16:00N 36°52' W 076°21'0 0.0
2018-Feb-13 15:30N 36°52' W 076°21'0 0.0
2018-Feb-13 15:00N 36°52' W 076°21'0 0.0
2018-Feb-13 14:30N 36°52' W 076°21'0 0.0
2018-Feb-13 14:00N 36°52' W 076°21'0 0.0
2018-Feb-13 13:30N 36°52' W 076°21'0 0.0
2018-Feb-13 13:00N 36°52' W 076°21'0 0.0
2018-Feb-13 12:30N 36°52' W 076°21'0 0.0
2018-Feb-13 12:00N 36°52' W 076°21'0 0.0
2018-Feb-13 11:30N 36°52' W 076°21'0 0.0
2018-Feb-13 11:00N 36°52' W 076°21'1 1.5
2018-Feb-13 10:30N 36°53' W 076°20'4 7.3
2018-Feb-13 10:00N 36°56' W 076°20'610.4
2018-Feb-13 09:27N 37°00' W 076°15'714.4
2018-Feb-13 08:57N 36°58' W 076°06'613.2
2018-Feb-13 08:30N 36°57' W 075°59'4 8.7
2018-Feb-13 08:00N 36°55' W 075°54'4 7.0
2018-Feb-13 07:29N 36°52' W 075°51'  

Dump ship's entire track history